Time;durP1;ratioP1;P1;durP2;ratioP2;P2;SDS_P1;SDS_P2;PMS_P1;PMS_P2;Temp;Humidity;BMP_temperature;BMP_pressure;BME280_temperature;BME280_humidity;BME280_pressure;Samples;Min_cycle;Max_cycle;Signal;HPM_P1;HPM_P2
2023/06/04 00:00:17;;;;;;;6.77;5.57;;;13.30;81.10;;;;;;2058937;28;20622;-67
2023/06/04 00:01:20;;;;;;;8.88;5.45;;;13.30;80.80;;;;;;2059985;28;20194;-68
2023/06/04 00:02:21;;;;;;;7.47;5.55;;;13.30;80.80;;;;;;2056952;28;20309;-68
2023/06/04 00:03:22;;;;;;;6.97;5.65;;;13.30;80.70;;;;;;2053215;28;20730;-69
2023/06/04 00:04:26;;;;;;;6.35;5.45;;;13.50;90.60;;;;;;2056597;28;20638;-69
2023/06/04 00:05:26;;;;;;;9.45;5.88;;;13.30;81.00;;;;;;2051630;28;20257;-68
2023/06/04 00:06:27;;;;;;;6.43;5.83;;;13.20;81.10;;;;;;2057955;28;20710;-68
2023/06/04 00:07:28;;;;;;;8.93;5.37;;;13.20;81.40;;;;;;2061147;28;20602;-68
2023/06/04 00:08:29;;;;;;;7.03;5.37;;;13.20;81.60;;;;;;2063572;28;20281;-68
2023/06/04 00:09:30;;;;;;;7.17;5.30;;;13.20;82.20;;;;;;2068951;28;20244;-68
2023/06/04 00:10:32;;;;;;;6.47;5.45;;;13.20;82.30;;;;;;2061635;28;20230;-68
2023/06/04 00:11:33;;;;;;;8.55;5.93;;;13.10;82.30;;;;;;2062207;28;20670;-68
2023/06/04 00:12:34;;;;;;;10.27;6.35;;;13.10;82.50;;;;;;2060500;28;20239;-68
2023/06/04 00:13:35;;;;;;;9.03;5.77;;;13.00;83.00;;;;;;2059721;28;20234;-68
2023/06/04 00:14:36;;;;;;;8.40;5.50;;;13.10;83.10;;;;;;2055659;28;20234;-69
2023/06/04 00:15:37;;;;;;;7.60;4.90;;;13.00;83.40;;;;;;2057017;28;20234;-69
2023/06/04 00:16:38;;;;;;;6.97;5.88;;;13.00;83.20;;;;;;2060210;28;20241;-68
2023/06/04 00:17:39;;;;;;;9.20;5.90;;;13.00;84.40;;;;;;2058427;28;21243;-68
2023/06/04 00:18:40;;;;;;;7.80;5.53;;;13.00;83.10;;;;;;2059890;28;20234;-68
2023/06/04 00:19:41;;;;;;;8.00;5.93;;;13.00;83.00;;;;;;2067027;28;20694;-68
2023/06/04 00:20:41;;;;;;;7.00;5.70;;;12.90;83.50;;;;;;2066995;28;20236;-68
2023/06/04 00:21:42;;;;;;;8.00;5.13;;;12.80;84.50;;;;;;2059943;28;20266;-67
2023/06/04 00:22:43;;;;;;;6.93;5.23;;;12.70;84.80;;;;;;2068894;28;20288;-68
2023/06/04 00:23:44;;;;;;;8.30;5.80;;;12.70;85.00;;;;;;2058933;28;20317;-68
2023/06/04 00:24:44;;;;;;;10.13;5.90;;;12.80;85.00;;;;;;2050116;28;20290;-68
2023/06/04 00:25:45;;;;;;;10.50;5.80;;;12.80;85.00;;;;;;2059882;28;20221;-68
2023/06/04 00:26:46;;;;;;;7.30;5.83;;;12.80;84.80;;;;;;2059409;28;20727;-68
2023/06/04 00:27:47;;;;;;;9.00;5.93;;;12.80;85.10;;;;;;2058802;28;20238;-68
2023/06/04 00:28:48;;;;;;;7.87;5.57;;;12.80;84.80;;;;;;2052295;28;20241;-68
2023/06/04 00:29:49;;;;;;;7.20;5.40;;;12.80;85.00;;;;;;2060965;28;20232;-68
2023/06/04 00:30:49;;;;;;;7.03;6.00;;;12.80;85.20;;;;;;2062672;28;20652;-68
2023/06/04 00:31:50;;;;;;;9.73;6.17;;;12.70;85.00;;;;;;2051572;28;20313;-68
2023/06/04 00:32:51;;;;;;;6.33;4.83;;;12.80;85.10;;;;;;2058404;28;20852;-68
2023/06/04 00:33:52;;;;;;;11.60;6.03;;;12.70;85.30;;;;;;2059003;28;20740;-68
2023/06/04 00:35:00;;;;;;;6.03;5.43;;;12.60;85.40;;;;;;2059852;28;20266;-68
2023/06/04 00:36:02;;;;;;;10.35;5.60;;;12.60;85.60;;;;;;2057925;28;20480;-68
2023/06/04 00:37:02;;;;;;;5.70;4.70;;;12.60;85.50;;;;;;2059458;28;20197;-68
2023/06/04 00:38:03;;;;;;;8.97;5.40;;;12.70;85.60;;;;;;2058261;28;20190;-69
2023/06/04 00:39:04;;;;;;;9.40;6.37;;;12.60;85.90;;;;;;2061091;28;20187;-69
2023/06/04 00:40:06;;;;;;;10.93;5.73;;;12.60;87.00;;;;;;2051278;28;20176;-69
2023/06/04 00:41:07;;;;;;;7.90;5.43;;;12.60;86.00;;;;;;2053437;28;20223;-68
2023/06/04 00:42:07;;;;;;;8.60;5.70;;;12.70;86.10;;;;;;2062172;28;20257;-69
2023/06/04 00:43:08;;;;;;;7.50;5.73;;;12.60;86.00;;;;;;2050207;28;20222;-69
2023/06/04 00:44:11;;;;;;;10.40;5.50;;;12.50;93.00;;;;;;2050042;28;20187;-68
2023/06/04 00:45:15;;;;;;;7.32;5.90;;;12.50;86.10;;;;;;2056941;28;20273;-68
2023/06/04 00:46:17;;;;;;;6.55;4.93;;;12.50;86.00;;;;;;2043905;28;20228;-68
2023/06/04 00:47:22;;;;;;;7.53;5.18;;;12.50;86.20;;;;;;2052911;28;20246;-68
2023/06/04 00:48:27;;;;;;;7.53;5.60;;;12.50;86.90;;;;;;2058722;28;20684;-68
2023/06/04 00:49:27;;;;;;;7.65;5.82;;;12.50;87.30;;;;;;2059493;28;20641;-68
2023/06/04 00:50:28;;;;;;;7.20;5.83;;;12.40;87.80;;;;;;2057283;28;20227;-68
2023/06/04 00:51:31;;;;;;;8.60;5.23;;;12.20;88.00;;;;;;2053729;28;20270;-68
2023/06/04 00:52:32;;;;;;;6.07;5.43;;;12.30;88.30;;;;;;2054012;28;20305;-68
2023/06/04 00:53:33;;;;;;;7.55;5.03;;;12.30;88.50;;;;;;2059534;28;20230;-68
2023/06/04 00:54:36;;;;;;;6.57;5.77;;;12.30;88.40;;;;;;2059260;28;20590;-68
2023/06/04 00:55:38;;;;;;;8.05;5.97;;;12.30;88.80;;;;;;2055194;28;20750;-67
2023/06/04 00:56:39;;;;;;;8.63;6.30;;;12.20;88.70;;;;;;2048729;28;20231;-68
2023/06/04 00:57:40;;;;;;;9.00;6.10;;;12.30;88.80;;;;;;2053462;28;20222;-69
2023/06/04 00:58:42;;;;;;;7.77;5.67;;;12.30;88.50;;;;;;2057808;28;20229;-68
2023/06/04 00:59:43;;;;;;;8.70;6.07;;;12.20;88.30;;;;;;2056118;28;20786;-68
2023/06/04 01:00:45;;;;;;;6.75;5.60;;;12.30;89.40;;;;;;2062156;28;20226;-68
2023/06/04 01:01:57;;;;;;;7.87;5.57;;;12.30;88.10;;;;;;2066031;28;20234;-69
2023/06/04 01:03:02;;;;;;;8.85;5.40;;;12.30;88.30;;;;;;2061219;28;20471;-68
2023/06/04 01:04:09;;;;;;;8.35;5.95;;;12.30;88.30;;;;;;2059688;28;20223;-69
2023/06/04 01:05:25;;;;;;;7.88;6.30;;;12.20;88.70;;;;;;2051988;28;20188;-68
2023/06/04 01:06:39;;;;;;;8.77;6.43;;;12.20;88.40;;;;;;2057720;28;20305;-67
2023/06/04 01:07:40;;;;;;;10.13;6.10;;;12.30;89.40;;;;;;2063791;28;20669;-67
2023/06/04 01:08:43;;;;;;;7.78;5.93;;;12.10;90.20;;;;;;2066329;28;20225;-67
2023/06/04 01:09:45;;;;;;;6.70;5.55;;;12.00;90.30;;;;;;2045093;28;20294;-67
2023/06/04 01:10:55;;;;;;;9.90;5.72;;;11.90;90.20;;;;;;2053261;28;20318;-67
2023/06/04 01:12:01;;;;;;;10.43;5.28;;;12.10;90.20;;;;;;2053289;28;20243;-67
2023/06/04 01:13:02;;;;;;;7.25;5.65;;;12.00;90.20;;;;;;2043826;28;20239;-67
2023/06/04 01:14:08;;;;;;;10.90;6.47;;;12.00;90.30;;;;;;2052280;28;20203;-68
2023/06/04 01:15:10;;;;;;;6.93;5.38;;;12.00;90.30;;;;;;2060078;28;20234;-67
2023/06/04 01:16:13;;;;;;;8.10;5.85;;;11.90;90.20;;;;;;2054413;28;20293;-67
2023/06/04 01:17:40;;;;;;;7.50;5.95;;;11.90;90.20;;;;;;2058764;28;20207;-68
2023/06/04 01:18:42;;;;;;;9.35;6.00;;;12.00;90.30;;;;;;2062520;28;20268;-68
2023/06/04 01:20:03;;;;;;;9.88;6.22;;;11.90;90.20;;;;;;2062771;28;20728;-67
2023/06/04 01:21:12;;;;;;;10.23;6.60;;;11.90;90.30;;;;;;2055587;28;20223;-68
2023/06/04 01:23:19;;;;;;;8.80;5.78;;;11.90;90.50;;;;;;2050942;28;20191;-68
2023/06/04 01:24:25;;;;;;;6.70;5.43;;;11.80;96.30;;;;;;2052100;28;20233;-68
2023/06/04 01:25:38;;;;;;;9.65;5.53;;;11.70;90.70;;;;;;2049446;28;20241;-68
2023/06/04 01:26:40;;;;;;;6.50;5.80;;;11.70;91.30;;;;;;2051735;28;20227;-68
2023/06/04 01:27:42;;;;;;;7.28;5.25;;;11.80;90.80;;;;;;2060098;28;20320;-68
2023/06/04 01:28:45;;;;;;;10.02;6.40;;;11.90;90.90;;;;;;2054580;28;20301;-67
2023/06/04 01:29:49;;;;;;;9.38;6.25;;;11.80;91.00;;;;;;2048962;28;20231;-68
2023/06/04 01:30:50;;;;;;;9.32;6.28;;;11.70;90.80;;;;;;2049641;28;20254;-68
2023/06/04 01:31:53;;;;;;;9.68;6.63;;;11.80;90.90;;;;;;2048227;28;20231;-68
2023/06/04 01:32:56;;;;;;;10.15;5.70;;;11.90;90.80;;;;;;2054541;28;20339;-68
2023/06/04 01:33:57;;;;;;;8.95;6.95;;;11.70;90.80;;;;;;2043430;28;20279;-68
2023/06/04 01:34:59;;;;;;;10.52;6.20;;;11.70;90.70;;;;;;2052024;28;20231;-68
2023/06/04 01:36:00;;;;;;;8.98;6.05;;;11.70;90.80;;;;;;2046859;28;20233;-69
2023/06/04 01:37:02;;;;;;;8.32;6.22;;;11.70;90.80;;;;;;2054684;28;20606;-68
2023/06/04 01:38:03;;;;;;;9.25;5.72;;;11.60;90.80;;;;;;2060086;28;20572;-68
2023/06/04 01:39:04;;;;;;;6.95;5.82;;;11.70;90.90;;;;;;2059542;28;20186;-68
2023/06/04 01:40:07;;;;;;;7.03;5.30;;;11.60;91.00;;;;;;2051928;28;20704;-68
2023/06/04 01:41:08;;;;;;;9.98;6.05;;;11.50;91.10;;;;;;2055131;28;20673;-68
2023/06/04 01:42:10;;;;;;;7.60;6.27;;;11.50;91.20;;;;;;2054818;28;20270;-68
2023/06/04 01:43:11;;;;;;;8.20;6.10;;;11.60;91.20;;;;;;2038674;28;20600;-68
2023/06/04 01:44:11;;;;;;;8.02;4.95;;;11.30;96.30;;;;;;2038511;28;20204;-67
2023/06/04 01:45:13;;;;;;;7.30;5.50;;;11.50;91.10;;;;;;2051666;28;20279;-68
2023/06/04 01:46:13;;;;;;;11.23;6.22;;;11.50;91.20;;;;;;2056125;28;20190;-68
2023/06/04 01:47:15;;;;;;;11.77;6.00;;;11.50;96.50;;;;;;2051585;28;20289;-68
2023/06/04 01:48:16;;;;;;;10.25;6.18;;;11.80;96.50;;;;;;2059735;28;20187;-68
2023/06/04 01:49:17;;;;;;;8.63;6.00;;;11.50;91.00;;;;;;2066426;28;20184;-68
2023/06/04 01:50:19;;;;;;;11.20;5.77;;;11.50;91.10;;;;;;2063741;28;20217;-67
2023/06/04 01:51:20;;;;;;;11.13;6.07;;;11.50;91.30;;;;;;2064645;28;20234;-68
2023/06/04 01:52:21;;;;;;;8.32;5.75;;;11.50;91.40;;;;;;2059759;28;20232;-68
2023/06/04 01:53:23;;;;;;;7.97;5.53;;;11.40;91.40;;;;;;2057055;28;20238;-68
2023/06/04 01:54:24;;;;;;;9.27;6.35;;;11.30;97.10;;;;;;2063784;28;20364;-68
2023/06/04 01:55:25;;;;;;;10.53;6.33;;;12.80;92.00;;;;;;2058576;28;20233;-68
2023/06/04 01:56:27;;;;;;;9.02;6.30;;;11.30;91.70;;;;;;2055532;28;20253;-68
2023/06/04 01:57:28;;;;;;;8.93;5.68;;;11.30;91.90;;;;;;2056608;28;20237;-68
2023/06/04 01:58:29;;;;;;;10.60;6.70;;;11.20;91.80;;;;;;2062225;28;20233;-68
2023/06/04 01:59:31;;;;;;;7.87;5.77;;;11.30;92.40;;;;;;2064477;28;20321;-68
2023/06/04 02:00:32;;;;;;;8.38;5.78;;;11.30;92.40;;;;;;2064612;28;20236;-68
2023/06/04 02:01:34;;;;;;;10.55;6.90;;;11.30;92.10;;;;;;2069288;28;20233;-68
2023/06/04 02:02:36;;;;;;;7.82;5.85;;;11.30;92.20;;;;;;2065690;28;20356;-68
2023/06/04 02:03:37;;;;;;;10.45;6.47;;;11.20;92.30;;;;;;2061147;28;20272;-68
2023/06/04 02:04:41;;;;;;;9.68;6.68;;;11.30;92.20;;;;;;2057814;28;20234;-68
2023/06/04 02:05:44;;;;;;;8.18;6.70;;;11.30;92.00;;;;;;2068741;28;20244;-68
2023/06/04 02:06:46;;;;;;;9.00;5.90;;;11.30;92.10;;;;;;2071201;28;20291;-68
2023/06/04 02:07:47;;;;;;;7.00;5.63;;;11.20;92.10;;;;;;2064674;28;20958;-68
2023/06/04 02:08:48;;;;;;;7.85;6.10;;;11.20;92.10;;;;;;2061364;28;20477;-67
2023/06/04 02:09:50;;;;;;;8.57;6.13;;;11.30;92.30;;;;;;2059793;28;20698;-66
2023/06/04 02:10:51;;;;;;;11.40;6.20;;;11.30;98.00;;;;;;2080873;23;20952;-68
2023/06/04 02:11:52;;;;;;;7.55;6.28;;;11.20;92.30;;;;;;2034996;29;20303;-69
2023/06/04 02:12:58;;;;;;;8.48;6.38;;;11.20;92.20;;;;;;2032842;29;20224;-68
2023/06/04 02:13:59;;;;;;;9.35;6.80;;;11.30;92.40;;;;;;2028432;29;20212;-70
2023/06/04 02:15:00;;;;;;;9.20;6.73;;;11.10;92.40;;;;;;2036804;28;20260;-69
2023/06/04 02:16:01;;;;;;;10.80;7.20;;;11.00;92.60;;;;;;2044448;28;20239;-69
2023/06/04 02:17:01;;;;;;;9.40;6.17;;;11.10;92.90;;;;;;2052125;28;20259;-69
2023/06/04 02:18:24;;;;;;;7.80;5.50;;;11.10;93.00;;;;;;2052456;28;20190;-69
2023/06/04 02:19:28;;;;;;;10.38;5.85;;;11.00;92.90;;;;;;2048064;28;20231;-69
2023/06/04 02:20:29;;;;;;;8.80;6.32;;;11.00;92.90;;;;;;2044274;29;20322;-69
2023/06/04 02:21:29;;;;;;;8.67;6.70;;;10.80;93.20;;;;;;2036804;29;20247;-69
2023/06/04 02:22:30;;;;;;;8.55;6.63;;;11.00;93.40;;;;;;2041834;29;20258;-69
2023/06/04 02:23:31;;;;;;;10.00;6.20;;;11.00;93.10;;;;;;2043118;29;20746;-68
2023/06/04 02:24:32;;;;;;;8.50;6.87;;;11.00;93.00;;;;;;2045726;29;20350;-69
2023/06/04 02:25:33;;;;;;;7.80;6.30;;;11.10;92.90;;;;;;2044219;28;20235;-68
2023/06/04 02:26:34;;;;;;;7.63;5.85;;;11.10;92.70;;;;;;2044815;28;20235;-68
2023/06/04 02:27:35;;;;;;;6.80;5.97;;;11.10;92.70;;;;;;2043312;28;20234;-69
2023/06/04 02:28:36;;;;;;;12.10;7.38;;;11.00;92.80;;;;;;2036530;29;20240;-69
2023/06/04 02:29:37;;;;;;;8.53;6.23;;;11.00;93.00;;;;;;2035100;29;20745;-69
2023/06/04 02:30:38;;;;;;;9.65;5.88;;;11.00;92.90;;;;;;2044394;29;20245;-69
2023/06/04 02:31:39;;;;;;;7.97;5.90;;;11.00;92.90;;;;;;2035597;29;20232;-69
2023/06/04 02:32:40;;;;;;;7.67;6.30;;;11.00;93.00;;;;;;2040984;29;20242;-69
2023/06/04 02:33:41;;;;;;;7.40;5.90;;;11.10;93.00;;;;;;2043517;29;20317;-69
2023/06/04 02:34:42;;;;;;;8.00;7.20;;;11.00;93.00;;;;;;2035767;29;20236;-68
2023/06/04 02:35:43;;;;;;;9.70;6.25;;;11.00;93.00;;;;;;2028009;29;20314;-69
2023/06/04 02:36:48;;;;;;;8.70;6.77;;;11.00;93.00;;;;;;2026417;29;20319;-68
2023/06/04 02:37:49;;;;;;;8.60;6.45;;;11.00;93.00;;;;;;2034923;29;20257;-68
2023/06/04 02:38:51;;;;;;;7.82;5.93;;;10.90;93.00;;;;;;2040297;28;20263;-68
2023/06/04 02:39:51;;;;;;;9.18;6.38;;;10.90;92.90;;;;;;2043852;29;20263;-68
2023/06/04 02:40:52;;;;;;;7.23;5.57;;;10.90;93.00;;;;;;2043129;28;20283;-68
2023/06/04 02:41:53;;;;;;;8.30;6.40;;;11.00;93.00;;;;;;2043252;28;20259;-68
2023/06/04 02:42:55;;;;;;;8.90;6.90;;;10.90;93.00;;;;;;2042018;29;20234;-68
2023/06/04 02:43:56;;;;;;;8.73;5.90;;;10.90;92.90;;;;;;2028485;29;20295;-68
2023/06/04 02:44:57;;;;;;;9.00;6.00;;;10.90;92.90;;;;;;2041001;29;20294;-69
2023/06/04 02:45:57;;;;;;;9.57;5.97;;;10.90;93.50;;;;;;2040579;29;20246;-69
2023/06/04 02:46:58;;;;;;;8.00;5.53;;;10.90;92.90;;;;;;2038819;29;20367;-69
2023/06/04 02:47:59;;;;;;;9.93;6.60;;;10.80;92.90;;;;;;2041913;28;20299;-70
2023/06/04 02:49:00;;;;;;;8.73;6.50;;;11.00;93.10;;;;;;2050705;28;20182;-70
2023/06/04 02:50:02;;;;;;;10.10;6.60;;;11.10;93.00;;;;;;2043797;28;20188;-70
2023/06/04 02:51:04;;;;;;;8.35;5.55;;;10.80;92.90;;;;;;2028542;29;20686;-69
2023/06/04 02:52:06;;;;;;;10.30;6.28;;;10.50;98.20;;;;;;2028708;29;20687;-69
2023/06/04 02:53:06;;;;;;;8.25;5.78;;;10.80;93.00;;;;;;2037615;29;20184;-69
2023/06/04 02:54:07;;;;;;;8.17;6.40;;;11.20;98.40;;;;;;2039906;29;20617;-69
2023/06/04 02:55:14;;;;;;;8.83;5.90;;;10.80;93.00;;;;;;2025301;29;20231;-69
2023/06/04 02:56:15;;;;;;;8.77;6.13;;;10.70;92.90;;;;;;2030139;29;20196;-69
2023/06/04 02:57:16;;;;;;;8.82;6.30;;;10.90;93.20;;;;;;2033784;29;20203;-69
2023/06/04 02:58:19;;;;;;;7.80;5.87;;;10.80;93.20;;;;;;2044272;28;20208;-69
2023/06/04 02:59:19;;;;;;;9.70;6.18;;;10.70;93.40;;;;;;2042724;28;20263;-69
2023/06/04 03:00:20;;;;;;;10.03;5.90;;;10.70;93.50;;;;;;2023276;29;20880;-69
2023/06/04 03:01:23;;;;;;;7.95;6.07;;;10.70;93.50;;;;;;2035967;29;20674;-69
2023/06/04 03:02:25;;;;;;;9.45;6.35;;;10.70;93.50;;;;;;2038208;29;20255;-69
2023/06/04 03:03:26;;;;;;;9.32;5.78;;;10.60;94.00;;;;;;2043482;29;20298;-69
2023/06/04 03:04:34;;;;;;;9.10;5.78;;;10.70;94.00;;;;;;2038072;29;20723;-69
2023/06/04 03:05:36;;;;;;;7.07;5.70;;;10.70;93.50;;;;;;2037130;29;20244;-69
2023/06/04 03:06:40;;;;;;;8.80;5.80;;;10.60;93.40;;;;;;2040364;29;20242;-69
2023/06/04 03:07:44;;;;;;;9.50;6.25;;;10.70;94.00;;;;;;2041003;29;20269;-69
2023/06/04 03:08:45;;;;;;;9.27;6.28;;;10.40;93.40;;;;;;2028438;29;20239;-69
2023/06/04 03:09:48;;;;;;;9.80;7.07;;;10.60;93.40;;;;;;2026518;29;20311;-69
2023/06/04 03:10:50;;;;;;;7.80;6.18;;;10.70;93.70;;;;;;2035867;29;20286;-69
2023/06/04 03:11:52;;;;;;;8.70;6.95;;;10.40;94.10;;;;;;2042579;28;20231;-69
2023/06/04 03:12:53;;;;;;;11.10;6.50;;;10.50;94.20;;;;;;2040031;29;20737;-68
2023/06/04 03:13:54;;;;;;;8.40;6.40;;;10.50;94.10;;;;;;2042739;29;20330;-69
2023/06/04 03:14:55;;;;;;;10.87;7.10;;;10.40;94.10;;;;;;2030128;29;20267;-68
2023/06/04 03:15:56;;;;;;;9.48;6.75;;;10.50;94.20;;;;;;2030826;29;20243;-68
2023/06/04 03:16:57;;;;;;;9.80;6.13;;;10.60;94.10;;;;;;2041304;29;20320;-68
2023/06/04 03:17:57;;;;;;;8.77;6.13;;;10.60;94.00;;;;;;2048822;28;20747;-68
2023/06/04 03:18:58;;;;;;;8.40;5.93;;;10.50;94.00;;;;;;2041147;29;20307;-68
2023/06/04 03:19:59;;;;;;;8.93;5.40;;;10.60;93.80;;;;;;2041005;28;20233;-71
2023/06/04 03:20:59;;;;;;;9.10;6.00;;;10.60;93.80;;;;;;2044102;28;20192;-69
2023/06/04 03:22:00;;;;;;;9.90;5.80;;;10.60;93.70;;;;;;2043044;29;20188;-69
2023/06/04 03:23:01;;;;;;;9.97;6.30;;;10.60;93.70;;;;;;2044161;29;20193;-69
2023/06/04 03:24:02;;;;;;;15.20;6.70;;;10.60;93.50;;;;;;2043035;29;20258;-69
2023/06/04 03:25:04;;;;;;;9.50;6.60;;;10.60;93.70;;;;;;2043309;29;20585;-69
2023/06/04 03:26:05;;;;;;;8.95;6.20;;;10.60;93.80;;;;;;2041047;29;20266;-69
2023/06/04 03:27:09;;;;;;;10.77;6.53;;;10.60;94.00;;;;;;2035793;29;20283;-68
2023/06/04 03:28:10;;;;;;;8.82;7.10;;;10.60;94.10;;;;;;2037906;29;20174;-68
2023/06/04 03:29:11;;;;;;;8.77;5.83;;;10.60;94.00;;;;;;2046317;28;20229;-68
2023/06/04 03:30:12;;;;;;;9.45;5.90;;;10.50;94.00;;;;;;2042245;28;20184;-68
2023/06/04 03:31:13;;;;;;;9.45;6.85;;;10.50;94.10;;;;;;2041859;28;20557;-68
2023/06/04 03:32:15;;;;;;;9.27;6.50;;;10.50;94.20;;;;;;2044802;28;20219;-68
2023/06/04 03:33:16;;;;;;;8.98;6.18;;;10.50;94.40;;;;;;2039236;29;20336;-69
2023/06/04 03:34:17;;;;;;;8.57;6.00;;;10.50;94.50;;;;;;2032994;29;20192;-69
2023/06/04 03:35:17;;;;;;;8.03;6.63;;;10.40;94.40;;;;;;2041431;29;20194;-69
2023/06/04 03:36:18;;;;;;;8.40;7.13;;;10.40;94.20;;;;;;2048286;29;20236;-69
2023/06/04 03:37:20;;;;;;;9.77;5.97;;;10.50;94.20;;;;;;2049581;28;20254;-68
2023/06/04 03:38:21;;;;;;;8.30;5.88;;;10.40;94.10;;;;;;2044196;29;20239;-69
2023/06/04 03:39:22;;;;;;;8.07;6.37;;;10.30;94.30;;;;;;2049318;29;20300;-69
2023/06/04 03:40:23;;;;;;;8.43;5.87;;;10.40;94.50;;;;;;2049225;29;20733;-69
2023/06/04 03:41:23;;;;;;;9.17;5.97;;;10.40;94.60;;;;;;2049889;28;20227;-68
2023/06/04 03:42:24;;;;;;;10.37;7.03;;;10.60;94.40;;;;;;2049854;28;20239;-68
2023/06/04 03:43:25;;;;;;;10.60;6.90;;;10.50;94.30;;;;;;2047345;28;20253;-69
2023/06/04 03:44:25;;;;;;;9.70;6.67;;;10.50;94.30;;;;;;2047565;28;20249;-69
2023/06/04 03:45:26;;;;;;;6.87;5.87;;;10.50;94.50;;;;;;2048503;28;20301;-68
2023/06/04 03:46:31;;;;;;;8.60;6.93;;;10.70;94.50;;;;;;2048606;28;20241;-68
2023/06/04 03:47:32;;;;;;;8.07;6.15;;;10.60;94.50;;;;;;2044879;28;20650;-69
2023/06/04 03:48:32;;;;;;;10.87;6.13;;;10.50;94.40;;;;;;2044202;28;20303;-69
2023/06/04 03:49:33;;;;;;;8.57;6.50;;;10.60;94.40;;;;;;2040463;29;20306;-68
2023/06/04 03:50:35;;;;;;;11.27;6.63;;;10.50;94.40;;;;;;2048975;28;20329;-68
2023/06/04 03:51:37;;;;;;;8.80;6.05;;;10.60;94.40;;;;;;2047564;28;20812;-68
2023/06/04 03:52:38;;;;;;;8.45;6.40;;;10.60;94.40;;;;;;2035766;29;20674;-68
2023/06/04 03:53:38;;;;;;;10.23;7.70;;;10.50;94.20;;;;;;2035980;29;20323;-69
2023/06/04 03:54:39;;;;;;;7.80;6.20;;;10.60;94.10;;;;;;2049293;28;20698;-69
2023/06/04 03:55:40;;;;;;;8.90;6.50;;;10.60;94.50;;;;;;2049518;28;20270;-69
2023/06/04 03:56:41;;;;;;;8.90;6.30;;;10.70;94.00;;;;;;2042818;29;20246;-68
2023/06/04 03:57:41;;;;;;;8.80;5.90;;;10.60;94.00;;;;;;2042709;29;20805;-68
2023/06/04 03:58:42;;;;;;;7.70;6.13;;;10.70;94.10;;;;;;2035991;29;20593;-68
2023/06/04 03:59:43;;;;;;;8.30;6.43;;;10.70;94.10;;;;;;2035534;29;20268;-68
2023/06/04 04:00:44;;;;;;;10.40;6.53;;;10.70;94.10;;;;;;2039328;29;20725;-68
2023/06/04 04:01:45;;;;;;;9.53;6.13;;;10.80;93.80;;;;;;2039775;29;20251;-68
2023/06/04 04:02:45;;;;;;;7.97;6.13;;;10.80;94.20;;;;;;2042867;28;20241;-68
2023/06/04 04:03:50;;;;;;;8.83;6.70;;;10.80;93.60;;;;;;2042986;29;20722;-69
2023/06/04 04:04:54;;;;;;;8.52;7.13;;;10.80;93.60;;;;;;2036965;29;20242;-68
2023/06/04 04:05:55;;;;;;;8.88;6.50;;;10.80;93.60;;;;;;2049130;28;20230;-69
2023/06/04 04:06:55;;;;;;;11.75;6.80;;;10.80;93.50;;;;;;2032270;29;20716;-68
2023/06/04 04:07:56;;;;;;;9.20;5.77;;;10.90;93.40;;;;;;2042830;29;20322;-69
2023/06/04 04:08:58;;;;;;;11.10;7.07;;;10.80;93.30;;;;;;2043158;29;20244;-69
2023/06/04 04:09:59;;;;;;;8.85;6.10;;;10.80;93.30;;;;;;2033385;29;20258;-69
2023/06/04 04:11:00;;;;;;;8.50;6.18;;;10.80;93.40;;;;;;2038889;29;20693;-69
2023/06/04 04:12:01;;;;;;;9.80;5.70;;;10.80;93.30;;;;;;2036421;29;21009;-69
2023/06/04 04:13:02;;;;;;;10.37;7.53;;;10.80;93.50;;;;;;2042575;29;20200;-69
2023/06/04 04:14:03;;;;;;;9.77;6.13;;;10.80;93.40;;;;;;2048394;28;20196;-69
2023/06/04 04:15:06;;;;;;;10.43;6.40;;;11.00;99.00;;;;;;2040952;28;20205;-69
2023/06/04 04:16:07;;;;;;;6.78;5.35;;;10.80;93.60;;;;;;2032678;29;20603;-69
2023/06/04 04:17:08;;;;;;;8.77;6.30;;;10.70;93.50;;;;;;2035724;29;20175;-69
2023/06/04 04:18:10;;;;;;;8.83;6.97;;;10.80;93.80;;;;;;2040018;29;20431;-68
2023/06/04 04:19:11;;;;;;;8.52;6.15;;;10.60;93.70;;;;;;2039846;29;20243;-69
2023/06/04 04:20:12;;;;;;;8.45;6.63;;;10.70;93.90;;;;;;2039702;29;20331;-68
2023/06/04 04:21:13;;;;;;;8.40;5.80;;;10.80;94.10;;;;;;2035737;29;20603;-68
2023/06/04 04:22:17;;;;;;;8.65;5.93;;;10.70;94.10;;;;;;2031979;29;20227;-68
2023/06/04 04:23:18;;;;;;;12.38;5.97;;;10.80;94.00;;;;;;2040788;28;20268;-69
2023/06/04 04:24:26;;;;;;;10.80;6.40;;;10.80;93.90;;;;;;2040098;29;20188;-69
2023/06/04 04:25:27;;;;;;;9.95;6.03;;;10.80;93.70;;;;;;2033450;29;20336;-69
2023/06/04 04:26:27;;;;;;;11.00;6.25;;;10.80;93.80;;;;;;2043738;29;20261;-69
2023/06/04 04:27:30;;;;;;;7.60;5.87;;;10.80;93.90;;;;;;2040569;28;20733;-69
2023/06/04 04:28:32;;;;;;;10.77;6.07;;;10.90;93.90;;;;;;2042469;28;20239;-69
2023/06/04 04:29:34;;;;;;;8.27;6.25;;;11.00;94.00;;;;;;2044404;29;20246;-69
2023/06/04 04:30:35;;;;;;;8.52;6.22;;;10.80;93.90;;;;;;2043402;29;20235;-69
2023/06/04 04:31:36;;;;;;;11.05;6.20;;;10.90;93.80;;;;;;2042450;28;20237;-69
2023/06/04 04:32:38;;;;;;;9.05;6.60;;;11.10;93.70;;;;;;2035266;29;20750;-69
2023/06/04 04:33:39;;;;;;;10.15;6.88;;;10.90;93.70;;;;;;2042745;29;20713;-69
2023/06/04 04:34:51;;;;;;;8.23;5.70;;;10.80;93.70;;;;;;2040021;28;20241;-69
2023/06/04 04:35:53;;;;;;;7.30;5.95;;;10.80;94.00;;;;;;2042017;29;20242;-69
2023/06/04 04:36:54;;;;;;;8.40;6.03;;;10.90;93.90;;;;;;2032600;29;20617;-69
2023/06/04 04:37:55;;;;;;;8.67;6.53;;;10.90;93.80;;;;;;2042385;29;20330;-69
2023/06/04 04:38:58;;;;;;;10.88;5.90;;;10.90;93.70;;;;;;2045504;29;20714;-69
2023/06/04 04:39:58;;;;;;;9.52;6.55;;;11.10;93.50;;;;;;2039537;29;20571;-69
2023/06/04 04:41:00;;;;;;;9.17;6.60;;;11.10;93.30;;;;;;2042314;28;20326;-71
2023/06/04 04:42:01;;;;;;;8.90;5.80;;;11.30;98.90;;;;;;2042791;29;20207;-69
2023/06/04 04:43:02;;;;;;;11.40;6.80;;;11.00;93.40;;;;;;2042844;28;20199;-69
2023/06/04 04:44:05;;;;;;;9.03;6.67;;;11.00;93.40;;;;;;2046795;29;20194;-70
2023/06/04 04:45:06;;;;;;;10.80;6.97;;;10.90;93.80;;;;;;2024263;29;20228;-69
2023/06/04 04:46:07;;;;;;;7.78;6.53;;;10.90;94.10;;;;;;2032457;29;20193;-69
2023/06/04 04:47:08;;;;;;;11.80;6.33;;;10.90;94.50;;;;;;2040219;28;20184;-69
2023/06/04 04:48:08;;;;;;;11.23;6.60;;;10.90;94.40;;;;;;2040884;29;20188;-69
2023/06/04 04:49:09;;;;;;;7.17;6.00;;;11.00;93.80;;;;;;2043756;28;20191;-69
2023/06/04 04:50:10;;;;;;;9.43;6.63;;;10.90;93.70;;;;;;2044261;28;20188;-69
2023/06/04 04:51:11;;;;;;;10.55;6.47;;;11.40;93.60;;;;;;2041498;28;20208;-69
2023/06/04 04:52:12;;;;;;;9.17;6.30;;;11.20;93.50;;;;;;2052463;28;20289;-69
2023/06/04 04:53:12;;;;;;;8.50;6.07;;;11.30;93.40;;;;;;2050404;28;20191;-69
2023/06/04 04:54:13;;;;;;;9.27;6.00;;;11.40;93.20;;;;;;2050489;28;20590;-69
2023/06/04 04:55:14;;;;;;;9.07;6.80;;;11.50;98.70;;;;;;2050194;28;20709;-69
2023/06/04 04:56:14;;;;;;;8.10;6.10;;;11.40;93.20;;;;;;2036210;29;20199;-69
2023/06/04 04:57:15;;;;;;;9.87;6.67;;;11.50;93.10;;;;;;2035783;29;20676;-69
2023/06/04 04:58:17;;;;;;;9.60;6.57;;;11.50;92.90;;;;;;2040315;29;20188;-69
2023/06/04 04:59:18;;;;;;;8.25;6.47;;;11.60;92.80;;;;;;2043142;29;20187;-69
2023/06/04 05:00:19;;;;;;;8.00;5.80;;;11.50;92.90;;;;;;2043220;29;20690;-69
2023/06/04 05:01:20;;;;;;;11.43;6.65;;;11.60;92.90;;;;;;2049313;28;20765;-69
2023/06/04 05:02:21;;;;;;;8.57;6.82;;;11.70;92.70;;;;;;2041906;29;20230;-69
2023/06/04 05:03:22;;;;;;;8.10;5.70;;;11.70;92.60;;;;;;2041887;29;20245;-69
2023/06/04 05:04:23;;;;;;;8.23;5.47;;;11.70;98.00;;;;;;2042364;29;20250;-69
2023/06/04 05:05:24;;;;;;;13.30;6.20;;;12.00;92.80;;;;;;2042328;29;20375;-69
2023/06/04 05:06:24;;;;;;;11.67;6.30;;;11.80;92.50;;;;;;2043080;28;20243;-69
2023/06/04 05:07:25;;;;;;;8.53;5.80;;;11.90;92.20;;;;;;2033780;29;20236;-69
2023/06/04 05:08:26;;;;;;;8.20;5.97;;;11.90;91.80;;;;;;2037270;29;20232;-69
2023/06/04 05:09:27;;;;;;;10.00;5.43;;;12.00;91.60;;;;;;2039018;29;20532;-69
2023/06/04 05:10:28;;;;;;;10.20;6.37;;;12.00;91.50;;;;;;2040815;29;20314;-69
2023/06/04 05:11:28;;;;;;;9.17;6.60;;;12.00;91.20;;;;;;2029235;29;20716;-69
2023/06/04 05:12:33;;;;;;;10.10;6.27;;;12.00;90.90;;;;;;2036201;29;20251;-69
2023/06/04 05:13:34;;;;;;;9.27;6.38;;;12.10;90.90;;;;;;2050126;28;20234;-69
2023/06/04 05:14:37;;;;;;;10.03;6.23;;;12.00;91.30;;;;;;2050497;28;20254;-69
2023/06/04 05:15:40;;;;;;;8.98;6.43;;;12.00;91.70;;;;;;2050822;28;20237;-69
2023/06/04 05:16:40;;;;;;;8.20;6.55;;;12.00;92.00;;;;;;2049403;28;20699;-69
2023/06/04 05:17:41;;;;;;;8.63;6.30;;;11.70;92.30;;;;;;2043303;29;20231;-69
2023/06/04 05:18:44;;;;;;;9.33;6.70;;;11.80;92.80;;;;;;2043644;28;20265;-69
2023/06/04 05:19:47;;;;;;;9.88;6.82;;;11.80;92.20;;;;;;2047519;28;20234;-69
2023/06/04 05:20:47;;;;;;;10.27;8.43;;;12.00;92.60;;;;;;2050147;28;20233;-69
2023/06/04 05:21:48;;;;;;;9.70;6.63;;;11.90;92.50;;;;;;2040250;28;20235;-69
2023/06/04 05:22:50;;;;;;;9.70;6.88;;;12.10;92.60;;;;;;2042324;29;20231;-69